Time;durP1;ratioP1;P1;durP2;ratioP2;P2;SDS_P1;SDS_P2;PMS_P1;PMS_P2;Temp;Humidity;BMP_temperature;BMP_pressure;BME280_temperature;BME280_humidity;BME280_pressure;Samples;Min_cycle;Max_cycle;Signal;HPM_P1;HPM_P2
2022/03/21 00:00:08;;;;;;;;;;;6.90;99.90;;;;;;4231502;28;20126;-90
2022/03/21 00:02:09;;;;;;;49.40;24.17;;;6.90;99.90;;;;;;4231876;28;19920;-89
2022/03/21 00:04:10;;;;;;;44.67;24.58;;;8.30;99.90;;;;;;4248664;27;20162;-90
2022/03/21 00:06:11;;;;;;;42.92;23.65;;;7.60;99.90;;;;;;4231252;28;20054;-89
2022/03/21 00:08:17;;;;;;;45.03;24.13;;;7.40;99.90;;;;;;4248147;27;20047;-89
2022/03/21 00:10:19;;;;;;;45.15;23.83;;;7.00;99.90;;;;;;4248055;27;20090;-88
2022/03/21 00:12:19;;;;;;;42.00;22.75;;;7.00;99.90;;;;;;4232746;28;20101;-88
2022/03/21 00:14:20;;;;;;;45.20;22.55;;;7.00;99.90;;;;;;4266108;27;20066;-90
2022/03/21 00:16:23;;;;;;;42.30;22.50;;;8.40;99.90;;;;;;4266080;27;20053;-89
2022/03/21 00:18:25;;;;;;;42.17;20.48;;;7.00;99.90;;;;;;4266024;27;20066;-89
2022/03/21 00:20:29;;;;;;;41.60;22.05;;;7.20;99.90;;;;;;4255472;27;20055;-90
2022/03/21 00:22:29;;;;;;;40.83;20.98;;;7.60;99.90;;;;;;4249443;27;20452;-90
2022/03/21 00:24:30;;;;;;;35.83;19.02;;;8.50;99.90;;;;;;4229908;28;20080;-90
2022/03/21 00:26:32;;;;;;;37.30;19.20;;;8.40;99.90;;;;;;4224909;28;20507;-89
2022/03/21 00:28:33;;;;;;;33.00;18.52;;;7.10;99.90;;;;;;4266951;27;20095;-90
2022/03/21 00:30:35;;;;;;;39.28;19.83;;;8.30;99.90;;;;;;4215580;28;20048;-89
2022/03/21 00:32:37;;;;;;;36.28;19.45;;;7.80;99.90;;;;;;4248959;27;20068;-89
2022/03/21 00:34:38;;;;;;;34.90;18.02;;;8.00;99.90;;;;;;4234300;27;20126;-89
2022/03/21 00:36:39;;;;;;;37.90;20.05;;;7.00;99.90;;;;;;4249703;27;20039;-88
2022/03/21 00:38:41;;;;;;;36.05;17.58;;;;;;;;;;4213148;28;20105;-89
2022/03/21 00:40:45;;;;;;;31.88;17.52;;;7.00;99.90;;;;;;4218503;28;20401;-89
2022/03/21 00:42:49;;;;;;;35.17;18.05;;;7.70;99.90;;;;;;4231305;28;20043;-89
2022/03/21 00:44:51;;;;;;;31.13;17.35;;;7.00;99.90;;;;;;4244565;28;20056;-89
2022/03/21 00:46:52;;;;;;;29.40;16.73;;;6.90;99.90;;;;;;4242050;28;20472;-89
2022/03/21 00:48:52;;;;;;;34.03;16.50;;;8.20;99.90;;;;;;4212729;28;20044;-89
2022/03/21 00:50:54;;;;;;;31.33;17.85;;;8.40;99.90;;;;;;4213408;28;20428;-89
2022/03/21 00:52:57;;;;;;;33.40;16.25;;;7.40;99.90;;;;;;4236193;28;20515;-90
2022/03/21 00:54:59;;;;;;;28.52;15.00;;;7.00;99.90;;;;;;4217250;28;20060;-90
2022/03/21 00:57:00;;;;;;;31.00;15.38;;;8.10;99.90;;;;;;4245739;28;20043;-89
2022/03/21 00:59:03;;;;;;;30.52;15.10;;;7.90;99.90;;;;;;4230743;28;20158;-88
2022/03/21 01:01:05;;;;;;;32.70;16.13;;;6.90;99.90;;;;;;4253478;28;20478;-89
2022/03/21 01:03:08;;;;;;;27.30;14.60;;;8.00;99.90;;;;;;4234853;28;20415;-90
2022/03/21 01:05:09;;;;;;;34.20;16.75;;;7.80;99.90;;;;;;4245109;28;20082;-92
2022/03/21 01:07:11;;;;;;;26.33;13.55;;;6.90;99.90;;;;;;4232909;28;20043;-90
2022/03/21 01:09:17;;;;;;;26.67;14.30;;;6.80;99.90;;;;;;4214905;28;20127;-89
2022/03/21 01:11:17;;;;;;;33.72;15.70;;;7.30;99.90;;;;;;4233253;28;20119;-90
2022/03/21 01:13:18;;;;;;;29.25;14.48;;;7.00;99.90;;;;;;4249474;27;20047;-90
2022/03/21 01:15:23;;;;;;;29.05;13.50;;;6.90;99.90;;;;;;4231122;28;20055;-89
2022/03/21 01:17:23;;;;;;;32.45;14.40;;;6.90;99.90;;;;;;4259462;27;20042;-89
2022/03/21 01:19:27;;;;;;;30.33;14.13;;;6.90;99.90;;;;;;4249139;28;20043;-88
2022/03/21 01:21:31;;;;;;;28.25;13.90;;;7.50;99.90;;;;;;4231632;28;20159;-89
2022/03/21 01:23:32;;;;;;;29.70;14.75;;;6.80;99.90;;;;;;4229769;28;20084;-90
2022/03/21 01:25:34;;;;;;;25.73;13.32;;;8.00;99.90;;;;;;4213139;28;20548;-89
2022/03/21 01:27:35;;;;;;;23.75;13.93;;;6.80;99.90;;;;;;4230454;28;20815;-90
2022/03/21 01:29:36;;;;;;;24.60;12.45;;;6.70;99.90;;;;;;4224203;28;20055;-89
2022/03/21 01:31:37;;;;;;;26.08;14.52;;;7.70;99.90;;;;;;4227216;28;20048;-89
2022/03/21 01:33:38;;;;;;;27.77;13.25;;;8.10;99.90;;;;;;4231779;28;20043;-89
2022/03/21 01:35:38;;;;;;;25.60;12.40;;;6.70;99.90;;;;;;4235181;28;20407;-89
2022/03/21 01:37:40;;;;;;;23.10;13.68;;;6.70;99.90;;;;;;4227031;27;20098;-89
2022/03/21 01:39:40;;;;;;;24.75;13.25;;;7.50;99.90;;;;;;4236781;28;20522;-89
2022/03/21 01:41:41;;;;;;;27.48;13.93;;;6.70;99.90;;;;;;4238229;27;20123;-89
2022/03/21 01:44:20;;;;;;;22.95;13.00;;;8.10;99.90;;;;;;4235499;27;20050;-89
2022/03/21 01:46:21;;;;;;;;;;;6.70;99.90;;;;;;4198556;28;20060;-89
2022/03/21 01:48:22;;;;;;;26.40;11.82;;;7.40;99.90;;;;;;4218463;28;20304;-90
2022/03/21 01:50:22;;;;;;;28.77;14.50;;;8.20;99.90;;;;;;4216404;28;20485;-89
2022/03/21 01:52:23;;;;;;;26.10;12.75;;;6.60;99.90;;;;;;4252236;27;20078;-90
2022/03/21 01:56:45;;;;;;;29.70;13.25;;;7.10;99.90;;;;;;4246395;27;20051;-89
2022/03/21 01:58:47;;;;;;;25.05;12.93;;;6.50;99.90;;;;;;4216368;28;20054;-89
2022/03/21 02:00:47;;;;;;;23.95;11.98;;;7.50;99.90;;;;;;4232560;28;20186;-89
2022/03/21 02:02:49;;;;;;;23.75;11.38;;;6.50;99.90;;;;;;4263736;27;20042;-89
2022/03/21 02:04:50;;;;;;;24.52;12.25;;;7.70;99.90;;;;;;4263196;27;20483;-88
2022/03/21 02:06:51;;;;;;;27.27;11.32;;;6.40;99.90;;;;;;4216185;28;20292;-89
2022/03/21 02:08:52;;;;;;;21.35;12.15;;;7.60;99.90;;;;;;4215207;28;20142;-89
2022/03/21 02:10:55;;;;;;;22.73;12.30;;;7.30;99.90;;;;;;4232374;28;20131;-89
2022/03/21 02:12:57;;;;;;;25.58;11.85;;;6.40;99.90;;;;;;4215730;28;20094;-89
2022/03/21 02:14:58;;;;;;;24.00;11.60;;;7.20;99.90;;;;;;4232654;28;20516;-89
2022/03/21 02:16:59;;;;;;;22.98;12.30;;;7.50;99.90;;;;;;4226808;28;20109;-89
2022/03/21 02:19:07;;;;;;;23.05;12.43;;;6.70;99.90;;;;;;4245472;27;20487;-90
2022/03/21 02:21:16;;;;;;;22.45;11.80;;;6.20;99.90;;;;;;4249480;27;20047;-89
2022/03/21 02:23:30;;;;;;;23.42;12.30;;;7.50;99.90;;;;;;4267842;27;20081;-88
2022/03/21 02:25:31;;;;;;;22.00;11.48;;;6.20;99.90;;;;;;4231800;28;20048;-89
2022/03/21 02:27:33;;;;;;;26.67;12.35;;;6.20;99.90;;;;;;4248671;27;20050;-90
2022/03/21 02:29:36;;;;;;;28.98;13.30;;;6.20;99.90;;;;;;4231661;28;20071;-89
2022/03/21 02:31:37;;;;;;;22.40;12.00;;;7.20;99.90;;;;;;4231922;28;20039;-90
2022/03/21 02:33:39;;;;;;;27.45;13.45;;;7.20;99.90;;;;;;4232020;28;20058;-90
2022/03/21 02:35:46;;;;;;;26.20;11.75;;;6.10;99.90;;;;;;4249076;27;20126;-90
2022/03/21 02:37:47;;;;;;;24.25;10.55;;;6.00;99.90;;;;;;4249250;27;20047;-89
2022/03/21 02:39:50;;;;;;;23.08;11.10;;;7.00;99.90;;;;;;4248970;27;20554;-90
2022/03/21 02:41:50;;;;;;;24.13;11.13;;;6.10;99.90;;;;;;4248691;27;20062;-90
2022/03/21 02:43:59;;;;;;;22.17;11.10;;;5.90;99.90;;;;;;4244472;27;20517;-89
2022/03/21 02:46:06;;;;;;;25.23;11.25;;;6.70;99.90;;;;;;4231572;28;20047;-89
2022/03/21 02:48:07;;;;;;;22.58;11.38;;;6.50;99.90;;;;;;4249714;27;20071;-88
2022/03/21 02:50:13;;;;;;;25.05;11.15;;;5.90;99.90;;;;;;4214571;28;20036;-89
2022/03/21 02:52:16;;;;;;;23.35;11.60;;;7.10;99.90;;;;;;4249916;27;20053;-88
2022/03/21 02:54:19;;;;;;;19.42;10.60;;;5.80;99.90;;;;;;4231516;28;20074;-89
2022/03/21 02:56:20;;;;;;;18.30;10.18;;;5.80;99.90;;;;;;4214072;28;20048;-89
2022/03/21 02:58:21;;;;;;;27.83;10.73;;;6.60;99.90;;;;;;4231526;28;20039;-89
2022/03/21 03:00:22;;;;;;;22.77;11.10;;;6.80;99.90;;;;;;4214513;28;20158;-89
2022/03/21 03:02:22;;;;;;;21.13;11.15;;;6.70;99.90;;;;;;4231407;28;20039;-89
2022/03/21 03:04:24;;;;;;;28.98;11.50;;;6.30;99.90;;;;;;4250146;27;20041;-89
2022/03/21 03:06:25;;;;;;;21.77;11.45;;;5.70;99.90;;;;;;4248451;27;20043;-88
2022/03/21 03:08:26;;;;;;;22.45;11.20;;;5.70;99.90;;;;;;4256429;27;20551;-89
2022/03/21 03:10:28;;;;;;;28.58;11.88;;;5.70;99.90;;;;;;4215386;28;20048;-88
2022/03/21 03:12:29;;;;;;;27.10;12.75;;;6.10;99.90;;;;;;4215054;28;20126;-89
2022/03/21 03:14:30;;;;;;;27.25;12.07;;;5.80;99.90;;;;;;4243311;27;20400;-89
2022/03/21 03:16:31;;;;;;;24.52;12.65;;;6.10;99.90;;;;;;4247602;27;20537;-89
2022/03/21 03:18:32;;;;;;;27.80;12.60;;;5.60;99.90;;;;;;4215472;28;20141;-89
2022/03/21 03:20:34;;;;;;;26.38;11.98;;;6.70;99.90;;;;;;4215338;28;20474;-90
2022/03/21 03:22:36;;;;;;;28.95;13.02;;;6.00;99.90;;;;;;4231978;28;20051;-89
2022/03/21 03:24:39;;;;;;;27.58;12.52;;;6.80;99.90;;;;;;4231975;28;20085;-89
2022/03/21 03:26:40;;;;;;;26.25;12.43;;;5.50;99.90;;;;;;4231520;28;20047;-89
2022/03/21 03:28:40;;;;;;;23.00;13.07;;;6.60;99.90;;;;;;4218599;28;20490;-89
2022/03/21 03:30:42;;;;;;;25.20;12.73;;;5.90;99.90;;;;;;4249288;27;20051;-89
2022/03/21 03:32:47;;;;;;;24.48;13.40;;;5.40;99.90;;;;;;4254731;27;20046;-89
2022/03/21 03:34:49;;;;;;;27.80;13.27;;;6.50;99.90;;;;;;4254855;27;20046;-89
2022/03/21 03:36:51;;;;;;;25.38;13.02;;;6.40;99.90;;;;;;4233393;28;20067;-89
2022/03/21 03:38:52;;;;;;;29.52;14.27;;;5.30;99.90;;;;;;4258385;27;20122;-89
2022/03/21 03:40:54;;;;;;;29.50;14.43;;;5.30;99.90;;;;;;4222656;28;20059;-89
2022/03/21 03:42:55;;;;;;;31.45;14.43;;;6.40;99.90;;;;;;4248814;27;20050;-89
2022/03/21 03:44:56;;;;;;;31.50;13.70;;;5.30;99.90;;;;;;4231166;28;20066;-90
2022/03/21 03:46:58;;;;;;;29.30;13.23;;;6.50;99.90;;;;;;4231310;28;20047;-89
2022/03/21 03:48:58;;;;;;;30.38;13.27;;;6.30;99.90;;;;;;4232000;28;20057;-89
2022/03/21 03:51:00;;;;;;;29.55;13.93;;;5.30;99.90;;;;;;4231371;28;20404;-89
2022/03/21 03:53:01;;;;;;;29.25;13.90;;;5.30;99.90;;;;;;4232527;28;20395;-89
2022/03/21 03:55:04;;;;;;;35.20;15.10;;;6.50;99.90;;;;;;4230551;28;20051;-89
2022/03/21 03:57:05;;;;;;;29.98;14.32;;;5.20;99.90;;;;;;4214615;28;20052;-89
2022/03/21 03:59:06;;;;;;;26.13;12.65;;;5.20;99.90;;;;;;4248484;27;20499;-89
2022/03/21 04:01:07;;;;;;;28.67;13.98;;;5.20;99.90;;;;;;4232312;27;20416;-89
2022/03/21 04:05:27;;;;;;;30.60;13.65;;;5.10;99.90;;;;;;4247020;27;20047;-89
2022/03/21 04:07:29;;;;;;;24.13;12.25;;;5.70;99.90;;;;;;4247108;27;20323;-89
2022/03/21 04:09:29;;;;;;;26.88;13.73;;;6.20;99.90;;;;;;4265929;27;20038;-89
2022/03/21 04:11:30;;;;;;;31.58;14.85;;;6.30;99.90;;;;;;4264994;27;20099;-89
2022/03/21 04:13:31;;;;;;;29.45;13.32;;;5.90;99.90;;;;;;4245826;27;20046;-91
2022/03/21 04:15:32;;;;;;;24.10;13.02;;;5.00;99.90;;;;;;4216195;28;20484;-89
2022/03/21 04:17:35;;;;;;;28.55;13.63;;;5.20;99.90;;;;;;4242711;27;20043;-88
2022/03/21 04:19:36;;;;;;;27.55;13.48;;;6.20;99.90;;;;;;4247422;27;20059;-90
2022/03/21 04:21:38;;;;;;;28.20;12.82;;;5.90;99.90;;;;;;4247234;27;20068;-89
2022/03/21 04:23:39;;;;;;;24.63;12.98;;;5.00;99.90;;;;;;4218514;28;20040;-90
2022/03/21 04:25:42;;;;;;;26.90;12.50;;;5.80;99.90;;;;;;4213623;28;20040;-90
2022/03/21 04:27:42;;;;;;;28.98;12.60;;;4.80;99.90;;;;;;4214078;28;20044;-89
2022/03/21 04:29:44;;;;;;;25.70;12.77;;;6.00;99.90;;;;;;4215125;28;20457;-89
2022/03/21 04:31:45;;;;;;;23.33;12.35;;;5.90;99.90;;;;;;4214637;28;20593;-89
2022/03/21 04:33:48;;;;;;;24.90;12.55;;;6.20;99.90;;;;;;4197565;28;20131;-89
2022/03/21 04:35:48;;;;;;;28.15;11.77;;;4.80;99.90;;;;;;4214114;28;20131;-88
2022/03/21 04:37:50;;;;;;;25.45;11.98;;;5.30;99.90;;;;;;4197266;28;20052;-90
2022/03/21 04:39:51;;;;;;;25.23;12.68;;;4.80;99.90;;;;;;4198097;28;20483;-89
2022/03/21 04:41:52;;;;;;;22.75;11.55;;;6.10;99.90;;;;;;4227821;28;20423;-89
2022/03/21 04:43:54;;;;;;;24.67;12.55;;;6.20;99.90;;;;;;4227023;28;20058;-89
2022/03/21 04:45:54;;;;;;;22.08;10.77;;;5.00;99.90;;;;;;4213993;28;20044;-89
2022/03/21 04:47:56;;;;;;;22.00;11.90;;;5.80;99.90;;;;;;4196976;28;20538;-88
2022/03/21 04:49:59;;;;;;;28.85;12.50;;;4.70;99.90;;;;;;4215090;28;20087;-89
2022/03/21 04:52:00;;;;;;;22.42;10.85;;;4.70;99.90;;;;;;4213916;28;20048;-89
2022/03/21 04:54:01;;;;;;;23.98;12.27;;;4.70;99.90;;;;;;4214239;28;20052;-88
2022/03/21 04:56:03;;;;;;;27.20;11.73;;;4.70;99.90;;;;;;4215668;28;20480;-88
2022/03/21 04:58:04;;;;;;;29.10;13.05;;;4.70;99.90;;;;;;4213752;28;20044;-88
2022/03/21 05:00:05;;;;;;;21.83;11.50;;;5.40;99.90;;;;;;4197528;28;20177;-90
2022/03/21 05:02:06;;;;;;;22.90;11.80;;;4.60;99.90;;;;;;4213998;28;20050;-88
2022/03/21 05:04:08;;;;;;;24.38;11.52;;;5.70;99.90;;;;;;4197435;28;20047;-89
2022/03/21 05:06:08;;;;;;;27.00;12.60;;;4.60;99.90;;;;;;4213138;28;20093;-89
2022/03/21 05:08:09;;;;;;;22.80;11.98;;;5.80;99.90;;;;;;4213313;28;20040;-87
2022/03/21 05:10:14;;;;;;;23.88;12.43;;;5.00;99.90;;;;;;4215197;28;20048;-88
2022/03/21 05:12:15;;;;;;;28.15;13.90;;;4.60;99.90;;;;;;4216429;28;20503;-87
2022/03/21 05:14:17;;;;;;;22.35;11.75;;;4.80;99.90;;;;;;4222370;28;20082;-89
2022/03/21 05:16:18;;;;;;;24.75;11.60;;;5.60;99.90;;;;;;4234607;28;20043;-87
2022/03/21 05:18:20;;;;;;;27.25;12.70;;;3.60;99.90;;;;;;4235247;28;20039;-89
2022/03/21 05:20:21;;;;;;;26.60;12.40;;;4.90;99.90;;;;;;4231690;28;20059;-88
2022/03/21 05:22:22;;;;;;;21.52;10.75;;;5.00;99.90;;;;;;4236459;27;20484;-88
2022/03/21 05:31:23;;;;;;;26.45;12.40;;;4.20;99.90;;;;;;4241104;27;20044;-88
2022/03/21 05:35:54;;;;;;;27.50;12.80;;;5.10;99.90;;;;;;4251840;27;20519;-87
2022/03/21 05:37:55;;;;;;;22.90;11.88;;;4.60;99.90;;;;;;4253506;27;20047;-88
2022/03/21 05:42:16;;;;;;;27.02;11.60;;;5.40;99.90;;;;;;4253120;27;20411;-89
2022/03/21 05:44:17;;;;;;;19.95;10.43;;;4.50;99.90;;;;;;4226046;28;20078;-88
2022/03/21 05:46:19;;;;;;;23.13;11.20;;;5.20;99.90;;;;;;4232421;27;20578;-89
2022/03/21 05:50:39;;;;;;;;;;;4.30;99.90;;;;;;4249510;27;20059;-88
2022/03/21 05:52:40;;;;;;;22.13;10.75;;;4.40;99.90;;;;;;4232105;28;19927;-88
2022/03/21 05:54:42;;;;;;;20.52;10.85;;;5.30;99.90;;;;;;4249309;27;20051;-88
2022/03/21 05:56:43;;;;;;;22.02;10.18;;;4.30;99.90;;;;;;4234034;27;20047;-88
2022/03/21 05:58:45;;;;;;;21.50;11.07;;;4.60;99.90;;;;;;4232366;27;20157;-88
2022/03/21 06:00:46;;;;;;;23.80;12.23;;;4.90;99.90;;;;;;4249618;27;20116;-88
2022/03/21 06:02:48;;;;;;;24.60;11.43;;;5.50;99.90;;;;;;4232539;28;20047;-88
2022/03/21 06:04:51;;;;;;;26.45;12.25;;;4.30;99.90;;;;;;4249846;27;20055;-88
2022/03/21 06:06:51;;;;;;;26.95;12.05;;;4.40;99.90;;;;;;4232702;28;20085;-88
2022/03/21 06:08:52;;;;;;;25.50;11.32;;;5.60;99.90;;;;;;4232110;28;20044;-88
2022/03/21 06:11:03;;;;;;;29.05;11.85;;;4.90;99.90;;;;;;4254757;27;20567;-87
2022/03/21 06:13:06;;;;;;;22.77;11.00;;;5.20;99.90;;;;;;4248871;27;20063;-88
2022/03/21 06:15:08;;;;;;;26.67;12.55;;;4.50;99.90;;;;;;4249642;27;20118;-87
2022/03/21 06:17:11;;;;;;;22.27;10.82;;;4.30;99.90;;;;;;4242062;27;20031;-88
2022/03/21 06:19:11;;;;;;;27.42;11.57;;;4.30;99.90;;;;;;4232393;28;20050;-88
2022/03/21 06:21:13;;;;;;;22.77;11.50;;;5.60;99.90;;;;;;4263374;27;20414;-88
2022/03/21 06:23:14;;;;;;;23.25;12.18;;;5.30;99.90;;;;;;4249000;27;20126;-88
2022/03/21 06:25:14;;;;;;;31.90;13.27;;;5.60;99.90;;;;;;4232624;28;20055;-88
2022/03/21 06:27:15;;;;;;;23.67;11.15;;;5.60;99.90;;;;;;4232650;28;20062;-88
2022/03/21 06:29:16;;;;;;;26.23;13.50;;;5.70;99.90;;;;;;4250282;27;20526;-88
2022/03/21 06:31:17;;;;;;;29.13;12.27;;;5.70;99.90;;;;;;4249481;27;20043;-88
2022/03/21 06:33:21;;;;;;;29.02;12.82;;;4.60;99.90;;;;;;4233155;28;20154;-88
2022/03/21 06:35:24;;;;;;;29.20;12.40;;;5.40;99.90;;;;;;4260532;27;20047;-88
2022/03/21 06:37:26;;;;;;;27.98;12.27;;;5.80;99.90;;;;;;4230484;28;20109;-88
2022/03/21 06:39:28;;;;;;;28.10;13.38;;;4.60;99.90;;;;;;4231454;28;20052;-88
2022/03/21 06:41:30;;;;;;;31.05;14.50;;;5.30;99.90;;;;;;4250541;27;20046;-88
2022/03/21 06:43:31;;;;;;;31.52;14.23;;;4.00;99.90;;;;;;4216858;28;20051;-87
2022/03/21 06:45:33;;;;;;;27.83;13.13;;;5.00;99.90;;;;;;4250796;27;20039;-87
2022/03/21 06:47:36;;;;;;;28.63;13.90;;;4.90;99.90;;;;;;4261498;27;20054;-87
2022/03/21 06:49:36;;;;;;;31.02;14.43;;;4.60;99.90;;;;;;4249130;27;20109;-85
2022/03/21 06:51:38;;;;;;;30.88;13.55;;;6.00;99.90;;;;;;4248952;27;20122;-85
2022/03/21 06:53:39;;;;;;;25.63;13.30;;;4.70;99.90;;;;;;4267855;27;20045;-86
2022/03/21 06:55:41;;;;;;;27.60;13.60;;;4.80;99.90;;;;;;4252368;27;20047;-85
2022/03/21 06:57:42;;;;;;;26.13;12.88;;;4.90;99.90;;;;;;4272560;27;20042;-84
2022/03/21 06:59:45;;;;;;;28.15;13.32;;;5.60;99.90;;;;;;4276810;27;20093;-84
2022/03/21 07:01:46;;;;;;;27.95;13.23;;;5.90;99.90;;;;;;4270073;27;20039;-84
2022/03/21 07:03:48;;;;;;;28.40;14.32;;;5.10;99.90;;;;;;4239585;28;20125;-84
2022/03/21 07:05:50;;;;;;;29.73;12.95;;;5.20;99.90;;;;;;4244739;28;20047;-84
2022/03/21 07:07:52;;;;;;;30.17;13.95;;;5.30;99.90;;;;;;4262431;27;20055;-83
2022/03/21 07:09:53;;;;;;;29.70;14.40;;;5.30;99.90;;;;;;4216251;28;20044;-84
2022/03/21 07:11:55;;;;;;;29.48;14.05;;;5.80;99.90;;;;;;4256544;27;20036;-84
2022/03/21 07:13:57;;;;;;;27.98;13.35;;;6.90;99.90;;;;;;4222680;28;20078;-84
2022/03/21 07:15:59;;;;;;;25.42;13.45;;;6.40;99.90;;;;;;4235143;28;20457;-84
2022/03/21 07:18:00;;;;;;;28.10;14.27;;;6.30;99.90;;;;;;4221982;28;20059;-84
2022/03/21 07:20:00;;;;;;;31.88;13.43;;;6.50;99.90;;;;;;4230816;28;20055;-84
2022/03/21 07:22:03;;;;;;;33.83;14.35;;;6.60;99.90;;;;;;4230583;28;20478;-84
2022/03/21 07:24:04;;;;;;;30.88;14.85;;;6.00;99.90;;;;;;4246451;27;20522;-85
2022/03/21 07:26:07;;;;;;;24.23;13.10;;;6.10;99.90;;;;;;4241841;27;20534;-85
2022/03/21 07:28:09;;;;;;;27.02;14.82;;;6.20;99.90;;;;;;4249475;27;20050;-85
2022/03/21 07:30:12;;;;;;;31.33;15.40;;;6.80;99.90;;;;;;4231590;28;20492;-85
2022/03/21 07:32:14;;;;;;;25.48;14.00;;;6.50;99.90;;;;;;4214535;28;20121;-85
2022/03/21 07:34:15;;;;;;;33.53;16.02;;;7.60;99.90;;;;;;4249599;27;20551;-85
2022/03/21 07:36:16;;;;;;;31.48;14.70;;;6.70;99.90;;;;;;4231673;28;20514;-85
2022/03/21 07:38:19;;;;;;;31.65;15.57;;;6.80;99.90;;;;;;4231064;28;20076;-85
2022/03/21 07:40:21;;;;;;;28.45;13.88;;;6.90;99.90;;;;;;4214735;28;20400;-85
2022/03/21 07:42:22;;;;;;;28.67;16.10;;;;;;;;;;4267002;27;20043;-85
2022/03/21 07:49:03;;;;;;;27.23;13.95;;;;;;;;;;4231142;28;20500;-85
2022/03/21 07:51:04;;;;;;;24.40;12.85;;;;;;;;;;4230388;28;20044;-85
2022/03/21 07:53:05;;;;;;;26.73;13.75;;;;;;;;;;4230377;28;20059;-85
2022/03/21 07:55:07;;;;;;;25.48;13.18;;;;;;;;;;4230628;28;20152;-86
2022/03/21 07:57:08;;;;;;;24.88;13.15;;;;;;;;;;4248798;27;20077;-85
2022/03/21 07:59:10;;;;;;;23.55;11.93;;;;;;;;;;4230494;28;20160;-85
2022/03/21 08:01:11;;;;;;;28.75;12.40;;;;;;;;;;4230874;28;20107;-85
2022/03/21 08:03:14;;;;;;;24.80;12.25;;;;;;;;;;4230623;28;20130;-86
2022/03/21 08:05:15;;;;;;;26.80;13.27;;;;;;;;;;4247827;27;20039;-85
2022/03/21 08:07:17;;;;;;;28.08;13.52;;;;;;;;;;4249035;27;20039;-86
2022/03/21 08:09:18;;;;;;;26.40;11.95;;;;;;;;;;4230482;28;20047;-85
2022/03/21 08:11:20;;;;;;;22.80;12.20;;;;;;;;;;4238251;27;20111;-85
2022/03/21 08:13:22;;;;;;;21.63;11.73;;;;;;;;;;4230953;28;20051;-86
2022/03/21 08:15:24;;;;;;;25.38;13.32;;;;;;;;;;4247395;27;20592;-86
2022/03/21 08:17:26;;;;;;;23.75;13.10;;;;;;;;;;4237524;27;20070;-85
2022/03/21 08:19:29;;;;;;;21.85;12.13;;;;;;;;;;4247343;27;20479;-85
2022/03/21 08:21:30;;;;;;;22.75;11.68;;;;;;;;;;4212526;28;20511;-86
2022/03/21 08:23:31;;;;;;;23.45;12.55;;;;;;;;;;4229408;28;20048;-85
2022/03/21 08:25:33;;;;;;;24.02;11.93;;;;;;;;;;4229070;28;20067;-86
2022/03/21 08:27:36;;;;;;;22.02;13.18;;;;;;;;;;4229306;28;20123;-85
2022/03/21 08:29:37;;;;;;;24.58;12.00;;;;;;;;;;4247570;27;20043;-85
2022/03/21 08:31:38;;;;;;;22.55;11.43;;;;;;;;;;4247739;27;20514;-85
2022/03/21 08:33:39;;;;;;;22.42;11.80;;;;;;;;;;4229043;28;20055;-86
2022/03/21 08:35:40;;;;;;;25.50;12.70;;;;;;;;;;4248778;27;20039;-86
2022/03/21 08:37:42;;;;;;;27.60;13.13;;;;;;;;;;4213042;28;20070;-86
2022/03/21 08:39:43;;;;;;;20.02;11.77;;;;;;;;;;4229489;28;20074;-86
2022/03/21 08:41:44;;;;;;;23.48;12.27;;;;;;;;;;4228925;28;20054;-86
2022/03/21 08:43:45;;;;;;;24.15;12.25;;;;;;;;;;4251361;27;20091;-86
2022/03/21 08:45:47;;;;;;;19.92;11.10;;;;;;;;;;4245886;27;20051;-86
2022/03/21 08:47:50;;;;;;;21.50;11.00;;;;;;;;;;4264767;27;20125;-86
2022/03/21 08:49:52;;;;;;;25.88;11.38;;;;;;;;;;4245933;28;20411;-87
2022/03/21 08:51:53;;;;;;;26.85;13.57;;;;;;;;;;4245996;28;20044;-86
2022/03/21 08:53:55;;;;;;;23.75;11.77;;;;;;;;;;4225263;28;20483;-86
2022/03/21 08:55:56;;;;;;;22.48;12.10;;;;;;;;;;4229713;28;20443;-86
2022/03/21 08:57:57;;;;;;;22.75;13.35;;;;;;;;;;4250519;27;20039;-86
2022/03/21 08:59:58;;;;;;;21.95;11.70;;;;;;;;;;4261822;27;20488;-87
2022/03/21 09:01:59;;;;;;;23.60;11.63;;;;;;;;;;4255534;27;20039;-86
2022/03/21 09:04:01;;;;;;;24.05;11.90;;;;;;;;;;4217771;28;20580;-86
2022/03/21 09:06:03;;;;;;;22.77;12.23;;;;;;;;;;4241155;28;20104;-86
2022/03/21 09:08:04;;;;;;;21.85;11.70;;;;;;;;;;4247126;27;20511;-85
2022/03/21 09:10:05;;;;;;;25.23;11.55;;;;;;;;;;4249876;27;20095;-85
2022/03/21 09:12:07;;;;;;;20.20;11.70;;;;;;;;;;4260295;27;20849;-85
2022/03/21 09:14:08;;;;;;;26.30;13.07;;;;;;;;;;4253593;27;20461;-85
2022/03/21 09:16:11;;;;;;;21.20;10.95;;;;;;;;;;4251311;27;20407;-85
2022/03/21 09:18:12;;;;;;;26.50;11.15;;;;;;;;;;4224610;28;20040;-85
2022/03/21 09:20:14;;;;;;;23.35;12.40;;;;;;;;;;4256662;27;20050;-86
2022/03/21 09:22:15;;;;;;;25.50;11.57;;;;;;;;;;4250325;27;20527;-85
2022/03/21 09:24:16;;;;;;;25.52;12.32;;;;;;;;;;4258941;27;20505;-85
2022/03/21 09:26:19;;;;;;;23.00;11.48;;;;;;;;;;4251197;27;20095;-85
2022/03/21 09:28:21;;;;;;;21.35;11.00;;;;;;;;;;4240033;28;20088;-84
2022/03/21 09:30:23;;;;;;;22.92;11.57;;;;;;;;;;4260166;27;20039;-85
2022/03/21 09:32:25;;;;;;;23.10;11.77;;;;;;;;;;4248077;27;20046;-84
2022/03/21 09:34:27;;;;;;;23.33;11.90;;;;;;;;;;4250636;27;20401;-86
2022/03/21 09:36:29;;;;;;;19.55;11.02;;;;;;;;;;4250383;27;20198;-87
2022/03/21 09:38:30;;;;;;;17.90;11.00;;;;;;;;;;4259142;27;20452;-86
2022/03/21 09:40:31;;;;;;;18.90;12.05;;;;;;;;;;4250967;27;20059;-86
2022/03/21 09:42:33;;;;;;;20.30;11.23;;;;;;;;;;4250521;27;20044;-87
2022/03/21 09:44:34;;;;;;;21.92;11.63;;;;;;;;;;4250605;27;20039;-86
2022/03/21 09:46:37;;;;;;;21.55;11.48;;;;;;;;;;4261504;27;20399;-86
2022/03/21 09:48:39;;;;;;;20.80;12.00;;;;;;;;;;4251518;27;20157;-86
2022/03/21 09:50:42;;;;;;;21.25;11.07;;;;;;;;;;4262238;27;20039;-86
2022/03/21 09:52:44;;;;;;;26.92;11.75;;;;;;;;;;4262127;27;20061;-86
2022/03/21 09:54:45;;;;;;;21.27;12.02;;;;;;;;;;4248827;27;20065;-86
2022/03/21 09:56:46;;;;;;;20.27;12.13;;;;;;;;;;4250840;27;20071;-86
2022/03/21 09:58:48;;;;;;;22.00;11.23;;;;;;;;;;4265644;27;20406;-86
2022/03/21 10:00:49;;;;;;;20.13;11.55;;;;;;;;;;4253231;27;20082;-86
2022/03/21 10:02:50;;;;;;;20.52;11.65;;;;;;;;;;4254662;27;20057;-86
2022/03/21 10:04:52;;;;;;;19.00;10.48;;;;;;;;;;4246580;27;20043;-86
2022/03/21 10:06:59;;;;;;;20.40;10.77;;;;;;;;;;4253885;27;20043;-86
2022/03/21 10:09:19;;;;;;;18.42;10.45;;;;;;;;;;4253603;27;20043;-87
2022/03/21 10:11:22;;;;;;;17.88;10.88;;;;;;;;;;4250351;27;20043;-87
2022/03/21 10:13:24;;;;;;;17.48;10.73;;;;;;;;;;4232994;27;20441;-85
2022/03/21 10:15:28;;;;;;;16.98;9.98;;;;;;;;;;4252998;27;20042;-85
2022/03/21 10:17:29;;;;;;;19.55;10.23;;;;;;;;;;4255676;27;20043;-84
2022/03/21 10:19:52;;;;;;;16.60;10.82;;;;;;;;;;4234569;27;20071;-85
2022/03/21 10:22:23;;;;;;;17.52;9.85;;;;;;;;;;4241811;27;20440;-83
2022/03/21 10:24:24;;;;;;;18.27;11.07;;;;;;;;;;4225560;27;20062;-85
2022/03/21 10:26:32;;;;;;;15.35;9.55;;;;;;;;;;4246620;27;20127;-84
2022/03/21 10:28:33;;;;;;;17.27;9.70;;;;;;;;;;4233748;27;20126;-83
2022/03/21 10:30:42;;;;;;;14.73;8.70;;;;;;;;;;4241039;27;20112;-84
2022/03/21 10:32:43;;;;;;;17.10;9.73;;;;;;;;;;4231603;27;20040;-85
2022/03/21 10:34:44;;;;;;;17.88;9.32;;;;;;;;;;4234403;27;20130;-84
2022/03/21 10:37:17;;;;;;;15.65;10.02;;;;;;;;;;4235587;27;20040;-85
2022/03/21 10:39:18;;;;;;;17.40;9.68;;;;;;;;;;4193999;28;20461;-85
2022/03/21 10:41:33;;;;;;;19.85;11.23;;;;;;;;;;4232429;27;20443;-85
2022/03/21 10:43:35;;;;;;;19.95;10.52;;;;;;;;;;4233774;27;20082;-84
2022/03/21 10:45:36;;;;;;;17.50;10.20;;;;;;;;;;4245099;27;20044;-84
2022/03/21 10:47:48;;;;;;;20.83;10.82;;;;;;;;;;4241100;27;20511;-83
2022/03/21 10:49:49;;;;;;;15.35;9.88;;;;;;;;;;4234273;27;20047;-84
2022/03/21 10:51:51;;;;;;;18.52;9.82;;;;;;;;;;4244067;27;20081;-84
2022/03/21 10:53:53;;;;;;;18.35;10.52;;;;;;;;;;4242880;27;20043;-84
2022/03/21 10:56:10;;;;;;;19.55;11.25;;;;;;;;;;4239758;27;20096;-84
2022/03/21 10:58:12;;;;;;;18.40;11.20;;;;;;;;;;4236090;27;20081;-85
2022/03/21 11:00:20;;;;;;;17.55;9.95;;;;;;;;;;4242433;27;20061;-86
2022/03/21 11:02:21;;;;;;;19.02;11.60;;;;;;;;;;4240616;27;20036;-87
2022/03/21 11:04:23;;;;;;;18.88;10.90;;;;;;;;;;4235621;27;20486;-86
2022/03/21 11:06:24;;;;;;;19.63;11.00;;;;;;;;;;4235554;27;20075;-86
2022/03/21 11:08:25;;;;;;;18.55;11.25;;;;;;;;;;4235570;27;20058;-86
2022/03/21 11:10:27;;;;;;;18.27;11.30;;;;;;;;;;4236875;27;20047;-86
2022/03/21 11:12:28;;;;;;;19.48;11.25;;;;;;;;;;4238720;27;20036;-87
2022/03/21 11:14:29;;;;;;;19.35;11.02;;;;;;;;;;4236994;27;20108;-86
2022/03/21 11:16:30;;;;;;;22.17;11.05;;;;;;;;;;4235434;27;20053;-87